Time;durP1;ratioP1;P1;durP2;ratioP2;P2;SDS_P1;SDS_P2;PMS_P1;PMS_P2;Temp;Humidity;BMP_temperature;BMP_pressure;BME280_temperature;BME280_humidity;BME280_pressure;Samples;Min_cycle;Max_cycle;Signal;HPM_P1;HPM_P2
2022/01/24 00:01:43;;;;;;;313.27;164.70;;;-3.70;3.00;;;;;;5012964;28;20038;-77
2022/01/24 00:04:11;;;;;;;322.05;164.80;;;-3.80;1.00;;;;;;5013207;28;20041;-77
2022/01/24 00:06:40;;;;;;;313.20;157.45;;;-3.80;1.00;;;;;;5012475;28;20137;-77
2022/01/24 00:09:08;;;;;;;352.15;179.57;;;-3.70;20.00;;;;;;5088996;28;20038;-78
2022/01/24 00:11:43;;;;;;;331.15;171.73;;;-3.70;1.00;;;;;;5013889;28;20048;-77
2022/01/24 00:17:08;;;;;;;327.55;169.27;;;-3.70;20.90;;;;;;5061313;28;20050;-77
2022/01/24 00:27:52;;;;;;;312.33;168.23;;;-3.90;24.50;;;;;;4991584;28;20537;-77
2022/01/24 00:30:20;;;;;;;339.65;181.68;;;-3.90;1.00;;;;;;5068314;28;20057;-78
2022/01/24 00:32:49;;;;;;;296.45;159.55;;;-3.90;1.00;;;;;;5079054;28;20426;-76
2022/01/24 00:35:17;;;;;;;277.10;141.75;;;-4.00;12.60;;;;;;5081838;28;20050;-77
2022/01/24 00:37:44;;;;;;;265.70;137.25;;;-3.90;12.30;;;;;;5017264;28;20054;-78
2022/01/24 00:40:12;;;;;;;262.20;135.13;;;-3.90;6.00;;;;;;5082454;28;20042;-78
2022/01/24 00:42:51;;;;;;;254.85;133.98;;;-3.90;38.70;;;;;;5015963;28;20042;-78
2022/01/24 00:45:28;;;;;;;255.93;132.23;;;-3.90;1.20;;;;;;5073549;28;20100;-78
2022/01/24 00:48:28;;;;;;;225.05;122.50;;;-3.80;5.20;;;;;;5063849;28;20404;-77
2022/01/24 00:54:00;;;;;;;268.60;143.32;;;-3.80;26.00;;;;;;5084165;28;20186;-78
2022/01/24 00:56:27;;;;;;;259.17;136.88;;;-3.70;26.90;;;;;;5079520;28;20517;-78
2022/01/24 00:58:55;;;;;;;266.67;136.88;;;-3.70;21.60;;;;;;5079387;28;20092;-77
2022/01/24 01:01:22;;;;;;;248.20;128.07;;;-3.50;1.00;;;;;;4995407;28;20535;-78
2022/01/24 01:03:51;;;;;;;239.65;124.60;;;-3.40;55.30;;;;;;5000051;28;20046;-78
2022/01/24 01:06:19;;;;;;;239.00;123.75;;;-3.40;27.90;;;;;;5088149;28;20069;-76
2022/01/24 01:19:48;;;;;;;228.57;117.40;;;-3.60;25.50;;;;;;5067554;28;20047;-77
2022/01/24 01:22:16;;;;;;;197.18;109.70;;;-3.60;20.10;;;;;;5063678;28;20076;-75
2022/01/24 01:24:49;;;;;;;223.23;116.32;;;-3.50;26.30;;;;;;4996262;28;20046;-76
2022/01/24 01:27:22;;;;;;;231.75;115.78;;;-3.50;20.50;;;;;;5000411;28;20026;-76
2022/01/24 01:29:55;;;;;;;223.27;114.70;;;-3.40;30.10;;;;;;5010048;28;20041;-76
2022/01/24 01:32:39;;;;;;;218.63;109.63;;;-3.20;62.30;;;;;;5004634;28;20122;-77
2022/01/24 01:35:25;;;;;;;216.40;107.63;;;-3.00;4.10;;;;;;4993444;28;20034;-76
2022/01/24 01:38:22;;;;;;;227.07;111.03;;;-2.90;28.70;;;;;;5060988;28;20057;-77
2022/01/24 01:54:52;;;;;;;287.27;136.90;;;-2.40;46.10;;;;;;5060457;28;20050;-76
2022/01/24 01:57:22;;;;;;;277.17;132.00;;;-2.40;99.90;;;;;;5003850;28;20034;-76
2022/01/24 01:59:50;;;;;;;282.02;133.88;;;-2.40;99.90;;;;;;5061901;28;20043;-76
2022/01/24 02:02:17;;;;;;;275.63;130.38;;;-2.40;99.90;;;;;;4993309;28;20121;-76
2022/01/24 02:04:45;;;;;;;280.00;131.30;;;-2.40;99.90;;;;;;5077730;28;20054;-77
2022/01/24 02:07:15;;;;;;;284.02;138.48;;;-2.40;99.90;;;;;;5008277;28;20148;-77
2022/01/24 02:09:45;;;;;;;293.92;139.55;;;-2.50;99.90;;;;;;5052234;28;20065;-77
2022/01/24 02:12:13;;;;;;;259.08;125.90;;;-2.60;99.90;;;;;;5010995;28;20062;-78
2022/01/24 02:14:46;;;;;;;246.68;119.65;;;-2.70;99.60;;;;;;5013405;28;20052;-78
2022/01/24 02:17:20;;;;;;;264.52;125.97;;;-2.80;99.20;;;;;;5021029;28;20134;-76
2022/01/24 02:20:04;;;;;;;249.68;121.18;;;-2.70;99.90;;;;;;5009950;28;20052;-77
2022/01/24 02:22:47;;;;;;;251.88;117.82;;;-2.70;99.90;;;;;;5063492;28;20042;-76
2022/01/24 02:25:25;;;;;;;269.23;130.23;;;-2.70;99.90;;;;;;5046178;28;20495;-78
2022/01/24 02:27:59;;;;;;;305.23;147.13;;;-2.60;99.90;;;;;;5086092;28;20042;-77
2022/01/24 02:33:11;;;;;;;286.20;140.70;;;-2.60;99.90;;;;;;5077781;28;20072;-78
2022/01/24 02:35:39;;;;;;;288.15;138.23;;;-2.50;99.90;;;;;;5009959;28;20056;-78
2022/01/24 02:38:16;;;;;;;275.60;133.57;;;-2.40;99.90;;;;;;4999889;28;20048;-78
2022/01/24 02:45:58;;;;;;;277.63;134.20;;;-2.50;99.10;;;;;;4996960;28;20051;-78
2022/01/24 02:48:57;;;;;;;268.83;133.98;;;-2.50;78.70;;;;;;5046175;28;20079;-78
2022/01/24 02:51:46;;;;;;;265.05;127.80;;;-2.50;93.90;;;;;;5013138;28;20041;-77
2022/01/24 02:54:27;;;;;;;257.80;127.70;;;-2.60;98.30;;;;;;5013497;28;20167;-78
2022/01/24 02:56:55;;;;;;;262.80;130.40;;;-2.70;99.90;;;;;;5077164;28;20048;-77
2022/01/24 02:59:23;;;;;;;247.05;128.05;;;-2.70;31.40;;;;;;5103600;28;20065;-77
2022/01/24 03:01:51;;;;;;;281.35;151.13;;;-2.60;4.70;;;;;;5104388;28;20061;-77
2022/01/24 03:04:18;;;;;;;248.13;134.10;;;-2.60;10.30;;;;;;5091779;28;20050;-77
2022/01/24 03:06:46;;;;;;;263.40;143.48;;;-2.60;29.20;;;;;;5075271;28;20064;-77
2022/01/24 03:09:14;;;;;;;240.93;125.03;;;-2.60;19.10;;;;;;5064116;28;20057;-77
2022/01/24 03:11:59;;;;;;;228.98;116.70;;;-2.60;17.50;;;;;;5019495;28;20041;-78
2022/01/24 03:14:29;;;;;;;224.55;116.93;;;-2.50;20.20;;;;;;5012596;28;20470;-78
2022/01/24 03:16:56;;;;;;;215.25;113.03;;;-2.40;23.10;;;;;;5003780;28;20042;-78
2022/01/24 03:19:24;;;;;;;202.07;105.30;;;-2.40;26.90;;;;;;5012411;28;20145;-77
2022/01/24 03:21:52;;;;;;;220.25;113.60;;;-2.40;42.60;;;;;;5012035;28;20045;-77
2022/01/24 03:24:20;;;;;;;231.40;114.18;;;-2.40;43.50;;;;;;5005714;28;20042;-76
2022/01/24 03:26:50;;;;;;;196.63;101.65;;;-2.40;45.80;;;;;;5008643;28;20083;-77
2022/01/24 03:29:18;;;;;;;167.35;87.75;;;-2.40;44.00;;;;;;5012505;28;20121;-77
2022/01/24 03:31:46;;;;;;;177.07;86.75;;;-2.30;1.00;;;;;;5033364;28;20053;-77
2022/01/24 03:34:15;;;;;;;182.18;93.32;;;-2.30;40.40;;;;;;5033413;28;20042;-77
2022/01/24 03:36:43;;;;;;;204.35;101.57;;;-2.30;36.90;;;;;;5084861;28;20042;-77
2022/01/24 03:39:12;;;;;;;200.55;98.00;;;-2.20;36.60;;;;;;5082599;28;20027;-77
2022/01/24 03:41:40;;;;;;;197.48;97.25;;;-2.30;56.30;;;;;;5014340;28;20073;-77
2022/01/24 03:44:12;;;;;;;238.80;118.50;;;-2.30;47.90;;;;;;5082097;28;20061;-76
2022/01/24 03:47:01;;;;;;;222.93;110.70;;;-2.20;52.00;;;;;;5078169;28;20050;-77
2022/01/24 03:49:48;;;;;;;245.50;117.78;;;-2.10;55.00;;;;;;5009933;28;20042;-77
2022/01/24 03:52:17;;;;;;;267.23;130.63;;;-2.10;51.70;;;;;;5048568;28;20070;-78
2022/01/24 03:54:45;;;;;;;248.45;124.10;;;-2.00;53.00;;;;;;5014984;28;20049;-77
2022/01/24 03:57:13;;;;;;;37.28;19.02;;;-2.00;52.80;;;;;;4996517;28;20498;-77
2022/01/24 03:59:43;;;;;;;46.05;23.38;;;-1.90;57.70;;;;;;4992175;28;20057;-77
2022/01/24 04:02:12;;;;;;;176.00;87.30;;;-1.80;71.10;;;;;;5000642;28;20046;-77
2022/01/24 04:04:40;;;;;;;157.80;79.53;;;-1.80;72.00;;;;;;4991260;28;20051;-77
2022/01/24 04:07:08;;;;;;;152.40;74.18;;;-1.80;84.50;;;;;;5000119;28;20117;-77
2022/01/24 04:09:36;;;;;;;145.77;74.00;;;-1.80;86.70;;;;;;5010538;28;20387;-77
2022/01/24 04:12:04;;;;;;;50.08;26.88;;;-1.70;76.10;;;;;;5078798;28;20414;-77
2022/01/24 04:14:38;;;;;;;130.02;63.88;;;-1.70;83.90;;;;;;5011120;28;20041;-77
2022/01/24 04:17:20;;;;;;;205.80;99.22;;;-1.70;82.50;;;;;;5015180;28;20049;-77
2022/01/24 04:22:46;;;;;;;153.98;78.95;;;-1.60;79.00;;;;;;5051760;28;20378;-76
2022/01/24 04:25:16;;;;;;;71.82;36.95;;;-1.60;99.90;;;;;;5014729;28;20046;-76
2022/01/24 04:27:43;;;;;;;42.40;21.58;;;-1.60;99.90;;;;;;5014721;28;20045;-76
2022/01/24 04:30:12;;;;;;;38.20;19.20;;;-1.60;52.10;;;;;;5070381;28;20057;-76
2022/01/24 04:32:41;;;;;;;39.40;19.38;;;-1.60;48.90;;;;;;5019546;28;20065;-77
2022/01/24 04:35:09;;;;;;;30.30;16.88;;;-1.60;67.30;;;;;;5021279;28;20030;-77
2022/01/24 04:37:37;;;;;;;33.92;18.75;;;-1.60;78.00;;;;;;5020005;28;20058;-77
2022/01/24 04:40:06;;;;;;;17.30;8.82;;;-1.70;65.80;;;;;;5015760;28;20064;-77
2022/01/24 04:42:41;;;;;;;16.38;9.82;;;-1.70;78.00;;;;;;5005770;28;20058;-77
2022/01/24 04:45:27;;;;;;;29.20;15.02;;;-1.70;99.90;;;;;;5047289;28;20136;-77
2022/01/24 04:50:57;;;;;;;47.28;24.35;;;-1.50;99.90;;;;;;5014795;28;20045;-77
2022/01/24 04:53:46;;;;;;;29.48;15.55;;;-1.50;99.90;;;;;;5013349;28;20077;-77
2022/01/24 04:56:13;;;;;;;24.70;14.48;;;-1.40;99.90;;;;;;5040231;28;20045;-77
2022/01/24 04:58:41;;;;;;;35.10;18.80;;;-1.40;99.90;;;;;;5081839;28;20052;-77
2022/01/24 05:01:08;;;;;;;26.83;14.48;;;-1.40;99.90;;;;;;5080762;28;20048;-77
2022/01/24 05:03:37;;;;;;;30.65;17.52;;;-1.30;99.90;;;;;;5082790;28;20422;-77
2022/01/24 05:06:04;;;;;;;30.42;16.95;;;-1.40;99.90;;;;;;5011887;28;20529;-77
2022/01/24 05:08:32;;;;;;;34.58;17.98;;;-1.40;99.90;;;;;;5013051;28;20050;-77
2022/01/24 05:11:04;;;;;;;34.17;18.48;;;-1.40;99.90;;;;;;5012769;28;20375;-77
2022/01/24 05:24:37;;;;;;;29.38;16.52;;;-1.50;99.90;;;;;;5007039;28;20042;-77
2022/01/24 05:27:05;;;;;;;32.88;16.70;;;-1.50;99.90;;;;;;5078251;28;20033;-77
2022/01/24 05:29:32;;;;;;;27.45;14.75;;;-1.60;99.90;;;;;;5081059;28;20156;-77
2022/01/24 05:32:00;;;;;;;28.85;13.88;;;-1.70;99.90;;;;;;5013102;28;20046;-77
2022/01/24 05:34:29;;;;;;;23.52;12.35;;;-1.80;99.90;;;;;;5080220;28;20046;-77
2022/01/24 05:36:56;;;;;;;21.65;11.57;;;-1.80;99.90;;;;;;4998740;28;20080;-77
2022/01/24 05:39:24;;;;;;;24.33;12.75;;;-1.80;99.90;;;;;;5077395;28;20043;-77
2022/01/24 05:41:52;;;;;;;20.10;11.55;;;-1.80;99.90;;;;;;5077328;28;20058;-77
2022/01/24 05:44:19;;;;;;;18.65;10.90;;;-1.70;99.90;;;;;;5066973;28;20034;-77
2022/01/24 05:46:47;;;;;;;26.17;13.38;;;-1.80;99.90;;;;;;5012224;28;20398;-77
2022/01/24 05:49:14;;;;;;;33.83;16.20;;;-1.80;99.90;;;;;;5012646;28;20048;-78
2022/01/24 05:51:43;;;;;;;40.00;23.52;;;-1.80;99.90;;;;;;5080251;28;20494;-77
2022/01/24 05:54:11;;;;;;;28.95;16.70;;;-1.90;99.90;;;;;;5080195;28;20048;-77
2022/01/24 05:56:39;;;;;;;34.30;17.45;;;-1.90;99.90;;;;;;5000674;28;20088;-77
2022/01/24 05:59:06;;;;;;;46.70;20.63;;;-1.90;99.90;;;;;;5008031;28;20038;-77
2022/01/24 06:01:34;;;;;;;54.83;24.40;;;-2.00;99.90;;;;;;5080145;28;20046;-77
2022/01/24 06:04:01;;;;;;;59.53;26.30;;;-2.10;99.90;;;;;;5012332;28;20049;-77
2022/01/24 06:06:29;;;;;;;76.20;33.42;;;-2.20;99.90;;;;;;5061913;28;20046;-76
2022/01/24 06:08:58;;;;;;;57.70;27.90;;;-2.30;99.90;;;;;;5060639;28;20125;-78
2022/01/24 06:11:26;;;;;;;44.72;22.85;;;-2.40;99.90;;;;;;5060444;28;20491;-76
2022/01/24 06:13:54;;;;;;;38.30;22.10;;;-2.50;99.90;;;;;;4992880;28;20388;-77
2022/01/24 06:16:22;;;;;;;46.33;25.27;;;-2.60;99.90;;;;;;5091384;28;20066;-76
2022/01/24 06:18:49;;;;;;;47.42;25.58;;;-2.60;99.90;;;;;;5061327;28;20185;-77
2022/01/24 06:21:17;;;;;;;53.03;29.02;;;-2.60;99.90;;;;;;5062230;28;20507;-76
2022/01/24 06:23:44;;;;;;;62.67;32.08;;;-2.60;99.90;;;;;;4994654;28;20058;-76
2022/01/24 06:26:13;;;;;;;60.05;33.67;;;-2.50;99.90;;;;;;5078446;28;20131;-76
2022/01/24 06:28:41;;;;;;;54.30;28.08;;;-2.50;99.90;;;;;;5083982;28;20081;-79
2022/01/24 06:31:09;;;;;;;77.20;39.25;;;-2.50;99.90;;;;;;5084682;28;20137;-76
2022/01/24 06:33:36;;;;;;;158.98;72.20;;;-2.50;99.90;;;;;;5062824;28;20050;-76
2022/01/24 06:36:04;;;;;;;139.77;67.90;;;-2.50;99.90;;;;;;5074741;28;20038;-77
2022/01/24 06:38:32;;;;;;;154.27;70.85;;;-2.50;99.90;;;;;;5078918;28;20038;-76
2022/01/24 06:40:59;;;;;;;131.52;60.13;;;-2.50;99.90;;;;;;5076242;28;20046;-75
2022/01/24 06:43:28;;;;;;;153.65;73.30;;;-2.60;99.90;;;;;;5003975;28;20060;-76
2022/01/24 06:45:56;;;;;;;160.05;71.50;;;-2.60;99.90;;;;;;5070781;28;20137;-77
2022/01/24 06:48:24;;;;;;;142.43;68.65;;;-2.50;99.90;;;;;;5007392;28;20054;-77
2022/01/24 06:50:52;;;;;;;120.50;57.53;;;-2.50;99.90;;;;;;4992160;28;20129;-77
2022/01/24 06:53:19;;;;;;;98.07;47.63;;;-2.50;99.90;;;;;;4993051;28;20046;-77
2022/01/24 06:55:46;;;;;;;34.85;19.20;;;-2.60;99.90;;;;;;5061794;28;20054;-76
2022/01/24 06:58:14;;;;;;;27.98;16.80;;;-2.60;99.90;;;;;;5010235;28;20053;-77
2022/01/24 07:00:43;;;;;;;40.03;22.17;;;-2.60;99.90;;;;;;5068510;28;20054;-78
2022/01/24 07:03:10;;;;;;;27.52;16.52;;;-2.50;99.90;;;;;;5075924;28;20525;-77
2022/01/24 07:05:38;;;;;;;71.45;34.05;;;-2.40;99.90;;;;;;5079307;28;20053;-78
2022/01/24 07:08:06;;;;;;;84.38;38.53;;;-2.20;99.90;;;;;;4995073;28;20109;-77
2022/01/24 07:10:34;;;;;;;84.90;39.70;;;-2.00;99.90;;;;;;5067420;28;20081;-77
2022/01/24 07:13:01;;;;;;;145.93;67.25;;;-1.80;99.90;;;;;;5025185;28;20072;-77
2022/01/24 07:15:35;;;;;;;148.65;69.95;;;-1.60;99.90;;;;;;5099019;28;20050;-77
2022/01/24 07:20:55;;;;;;;69.07;34.60;;;-1.50;99.90;;;;;;5037527;28;20034;-76
2022/01/24 07:23:22;;;;;;;81.85;41.05;;;-1.70;99.90;;;;;;5009728;28;20103;-77
2022/01/24 07:25:50;;;;;;;98.63;49.83;;;-1.70;99.90;;;;;;5011979;28;20052;-77
2022/01/24 07:28:17;;;;;;;31.77;15.27;;;-1.60;99.80;;;;;;5067481;28;20042;-77
2022/01/24 07:30:46;;;;;;;31.38;17.52;;;-1.50;98.20;;;;;;5002002;28;20042;-77
2022/01/24 07:33:15;;;;;;;28.75;15.05;;;-1.50;98.40;;;;;;5068265;28;20125;-77
2022/01/24 07:35:43;;;;;;;67.38;32.05;;;-1.40;98.30;;;;;;5096401;28;20150;-77
2022/01/24 07:38:11;;;;;;;55.05;25.60;;;-1.20;99.80;;;;;;5116463;28;20077;-77
2022/01/24 07:40:42;;;;;;;66.13;30.55;;;-1.20;99.20;;;;;;5099014;28;20517;-76
2022/01/24 07:43:12;;;;;;;81.53;36.25;;;-1.10;99.90;;;;;;5094657;28;20060;-76
2022/01/24 07:45:41;;;;;;;44.80;21.25;;;-1.00;96.10;;;;;;5094410;28;20074;-75
2022/01/24 07:48:09;;;;;;;29.85;14.60;;;-1.20;93.20;;;;;;5095709;28;20405;-76
2022/01/24 07:50:41;;;;;;;24.70;12.82;;;-1.50;93.10;;;;;;5101233;28;20064;-77
2022/01/24 07:53:08;;;;;;;27.90;12.63;;;-1.50;91.40;;;;;;5101380;28;20119;-77
2022/01/24 07:55:36;;;;;;;23.73;11.57;;;-1.50;82.80;;;;;;5088613;28;20147;-77
2022/01/24 07:58:04;;;;;;;27.30;11.85;;;-1.30;91.00;;;;;;5090011;28;20067;-75
2022/01/24 08:00:32;;;;;;;22.08;11.13;;;-1.10;90.90;;;;;;5097529;28;20070;-76
2022/01/24 08:03:00;;;;;;;24.98;12.02;;;-0.80;90.00;;;;;;5084640;28;20520;-77
2022/01/24 08:05:28;;;;;;;23.65;11.68;;;-0.70;90.30;;;;;;5079411;28;20067;-77
2022/01/24 08:07:57;;;;;;;25.67;13.45;;;-0.60;88.00;;;;;;5086769;28;20496;-77
2022/01/24 08:10:25;;;;;;;33.67;14.13;;;-0.60;84.70;;;;;;5083628;28;20097;-78
2022/01/24 08:12:53;;;;;;;35.35;15.52;;;-0.60;86.70;;;;;;5086312;28;20072;-76
2022/01/24 08:15:20;;;;;;;30.92;15.27;;;-0.60;90.00;;;;;;5088515;28;20071;-76
2022/01/24 08:17:48;;;;;;;29.63;14.50;;;-0.70;85.20;;;;;;5108160;28;20051;-77
2022/01/24 08:20:17;;;;;;;32.08;15.85;;;-0.70;84.40;;;;;;5096969;28;20040;-76
2022/01/24 08:22:45;;;;;;;29.58;14.45;;;-0.60;88.40;;;;;;5088455;28;20497;-76
2022/01/24 08:25:15;;;;;;;24.77;13.40;;;-0.70;86.50;;;;;;5094366;28;20483;-76
2022/01/24 08:27:43;;;;;;;25.25;13.35;;;-0.90;90.40;;;;;;5090816;28;20070;-77
2022/01/24 08:30:14;;;;;;;27.55;13.45;;;-0.70;91.60;;;;;;5089306;28;20044;-78
2022/01/24 08:32:41;;;;;;;37.80;16.75;;;-0.60;91.60;;;;;;5095777;28;20123;-77
2022/01/24 08:35:10;;;;;;;26.20;15.40;;;-0.60;91.40;;;;;;5096482;28;20044;-78
2022/01/24 08:37:38;;;;;;;33.88;16.70;;;-0.40;92.20;;;;;;5108356;28;20067;-77
2022/01/24 08:40:06;;;;;;;36.92;17.63;;;-0.40;91.60;;;;;;5103137;28;20504;-77
2022/01/24 08:42:40;;;;;;;35.50;17.08;;;-0.40;90.70;;;;;;5061509;28;20085;-76
2022/01/24 08:47:55;;;;;;;29.88;13.20;;;-0.30;89.10;;;;;;5026834;28;20049;-76
2022/01/24 08:50:26;;;;;;;33.90;14.10;;;-0.40;88.30;;;;;;5015925;28;20069;-77
2022/01/24 08:52:59;;;;;;;35.00;13.35;;;-0.40;86.70;;;;;;5083098;28;20058;-78
2022/01/24 08:55:28;;;;;;;25.92;12.65;;;-0.30;85.50;;;;;;5016720;28;20046;-77
2022/01/24 08:57:57;;;;;;;31.38;14.25;;;-0.30;87.20;;;;;;5015076;28;20459;-77
2022/01/24 09:00:25;;;;;;;26.83;13.32;;;-0.20;92.50;;;;;;5015349;28;20054;-77
2022/01/24 09:02:53;;;;;;;28.55;15.05;;;-0.40;82.70;;;;;;5015253;28;20064;-77
2022/01/24 09:05:23;;;;;;;34.55;13.15;;;-0.60;84.30;;;;;;5014416;28;20054;-76
2022/01/24 09:07:51;;;;;;;38.28;15.48;;;-0.60;92.50;;;;;;5069841;28;20046;-77
2022/01/24 09:10:18;;;;;;;25.75;13.63;;;-0.50;94.50;;;;;;4995901;28;20125;-76
2022/01/24 09:12:46;;;;;;;24.40;11.60;;;-0.40;93.40;;;;;;5062191;28;20121;-77
2022/01/24 09:15:15;;;;;;;23.02;10.90;;;-0.30;91.90;;;;;;5061875;28;20057;-78
2022/01/24 09:17:44;;;;;;;26.35;11.50;;;-0.30;92.40;;;;;;5064005;28;20126;-77
2022/01/24 09:20:14;;;;;;;20.77;9.77;;;-0.10;93.80;;;;;;5064489;28;20501;-75
2022/01/24 09:22:42;;;;;;;30.60;11.43;;;-0.10;80.60;;;;;;5066188;28;20440;-77
2022/01/24 09:25:11;;;;;;;23.45;10.38;;;-0.10;82.50;;;;;;5014979;28;20050;-77
2022/01/24 09:27:38;;;;;;;27.35;11.85;;;-0.10;83.40;;;;;;5080173;28;20049;-78
2022/01/24 09:30:08;;;;;;;28.20;13.02;;;-0.10;86.30;;;;;;5061664;28;20057;-77
2022/01/24 09:32:37;;;;;;;34.10;13.23;;;0.00;87.40;;;;;;4993207;28;20102;-77
2022/01/24 09:35:06;;;;;;;28.92;12.85;;;0.10;87.40;;;;;;4994482;28;20047;-77
2022/01/24 09:37:35;;;;;;;24.13;12.02;;;0.20;90.40;;;;;;5061902;28;20400;-77
2022/01/24 09:40:02;;;;;;;24.55;11.25;;;0.30;90.20;;;;;;5062131;28;20057;-78
2022/01/24 09:42:30;;;;;;;22.02;11.13;;;0.40;87.20;;;;;;4993777;28;20572;-77
2022/01/24 09:44:58;;;;;;;23.83;12.63;;;0.30;84.50;;;;;;5061760;28;20062;-78
2022/01/24 09:47:25;;;;;;;23.30;11.15;;;0.30;88.80;;;;;;4994364;28;20053;-77
2022/01/24 09:49:54;;;;;;;21.00;12.15;;;0.20;90.10;;;;;;4993986;28;20479;-77
2022/01/24 09:52:22;;;;;;;23.52;11.20;;;0.20;90.90;;;;;;5022653;28;20050;-77
2022/01/24 09:54:49;;;;;;;29.95;14.43;;;0.30;91.10;;;;;;5062351;28;20043;-77
2022/01/24 09:57:17;;;;;;;30.73;14.23;;;0.40;89.60;;;;;;5004514;28;20038;-76
2022/01/24 09:59:44;;;;;;;25.38;12.98;;;0.50;90.80;;;;;;5083128;28;20105;-77
2022/01/24 10:02:12;;;;;;;19.38;11.00;;;0.70;89.40;;;;;;5004507;28;20487;-77
2022/01/24 10:04:39;;;;;;;25.70;13.38;;;0.70;89.20;;;;;;5013825;28;20042;-78
2022/01/24 10:07:11;;;;;;;23.63;12.95;;;0.60;89.40;;;;;;5075054;28;20046;-78
2022/01/24 10:09:41;;;;;;;23.92;11.73;;;0.70;88.70;;;;;;4999331;28;20530;-77
2022/01/24 10:12:23;;;;;;;20.27;11.45;;;0.70;82.60;;;;;;5005914;28;20058;-77
2022/01/24 10:17:39;;;;;;;28.95;11.63;;;0.50;81.00;;;;;;5010210;28;20038;-78
2022/01/24 10:20:23;;;;;;;19.67;9.05;;;0.50;78.10;;;;;;5083933;28;20041;-76
2022/01/24 10:23:09;;;;;;;27.98;10.32;;;0.60;75.40;;;;;;5014041;28;20073;-75
2022/01/24 10:25:48;;;;;;;24.17;10.48;;;0.50;73.90;;;;;;5018330;28;20482;-76
2022/01/24 10:28:24;;;;;;;18.70;9.25;;;0.60;73.50;;;;;;5017362;28;20038;-76
2022/01/24 10:31:10;;;;;;;21.70;9.77;;;0.70;70.50;;;;;;5016653;28;20057;-76
2022/01/24 10:34:00;;;;;;;;;;;0.60;70.70;;;;;;5027305;28;20077;-77
2022/01/24 10:36:38;;;;;;;20.00;9.05;;;0.60;71.00;;;;;;5031192;28;19906;-76
2022/01/24 10:39:31;;;;;;;15.30;8.02;;;0.70;68.40;;;;;;5088936;28;20092;-77
2022/01/24 10:42:42;;;;;;;16.20;8.82;;;0.80;66.50;;;;;;5086661;28;20061;-76
2022/01/24 10:45:16;;;;;;;18.90;9.73;;;0.70;65.70;;;;;;5084716;28;20095;-77
2022/01/24 10:47:47;;;;;;;21.90;9.20;;;0.70;65.90;;;;;;5081231;28;20050;-77
2022/01/24 10:50:22;;;;;;;15.45;7.75;;;0.60;64.60;;;;;;5081182;28;20094;-76
2022/01/24 10:52:50;;;;;;;23.63;9.68;;;0.80;63.80;;;;;;5013051;28;20046;-76
2022/01/24 10:55:21;;;;;;;21.25;10.52;;;0.90;61.50;;;;;;5080587;28;20050;-77
2022/01/24 10:57:50;;;;;;;14.10;8.40;;;1.00;63.10;;;;;;5013806;28;20116;-76
2022/01/24 11:00:20;;;;;;;19.83;8.88;;;1.20;63.10;;;;;;5013629;28;20534;-77
2022/01/24 11:02:53;;;;;;;19.73;9.00;;;1.30;64.60;;;;;;5012949;28;20045;-76
2022/01/24 11:05:23;;;;;;;14.60;8.07;;;1.40;67.00;;;;;;5014084;28;20052;-77
2022/01/24 11:07:53;;;;;;;16.15;9.32;;;1.20;48.70;;;;;;5081473;28;20471;-77
2022/01/24 11:10:23;;;;;;;19.58;10.32;;;1.30;50.90;;;;;;5084378;28;20053;-76
2022/01/24 11:12:51;;;;;;;22.90;11.88;;;1.40;54.90;;;;;;5080696;28;20054;-78
2022/01/24 11:15:19;;;;;;;20.60;8.85;;;1.60;53.10;;;;;;5013644;28;20050;-77
2022/01/24 11:17:47;;;;;;;27.00;9.73;;;1.50;50.30;;;;;;5081565;28;20497;-77
2022/01/24 11:20:20;;;;;;;19.05;9.38;;;1.50;49.80;;;;;;5083169;28;20046;-77
2022/01/24 11:22:58;;;;;;;15.15;8.05;;;1.40;51.40;;;;;;5085002;28;20050;-77
2022/01/24 11:25:28;;;;;;;18.25;8.32;;;1.50;50.90;;;;;;5084421;28;20080;-77
2022/01/24 11:27:56;;;;;;;15.57;8.40;;;1.50;53.40;;;;;;5025135;28;20080;-77
2022/01/24 11:30:29;;;;;;;15.65;8.60;;;1.30;51.10;;;;;;5096810;28;20118;-77
2022/01/24 11:32:59;;;;;;;18.85;7.82;;;1.20;50.40;;;;;;5095068;28;20053;-76
2022/01/24 11:35:33;;;;;;;16.83;8.43;;;1.10;51.90;;;;;;5033469;28;20030;-77
2022/01/24 11:38:01;;;;;;;18.20;8.90;;;1.10;52.60;;;;;;5099539;28;20445;-77
2022/01/24 11:40:46;;;;;;;16.15;8.02;;;1.00;55.00;;;;;;5087710;28;20049;-77
2022/01/24 11:43:34;;;;;;;22.10;10.07;;;1.10;53.20;;;;;;5016426;28;20501;-76
2022/01/24 11:46:07;;;;;;;21.75;9.35;;;1.30;56.90;;;;;;5011685;28;20510;-76
2022/01/24 11:48:37;;;;;;;20.15;11.30;;;1.20;51.20;;;;;;5005421;28;20129;-77
2022/01/24 11:51:07;;;;;;;19.10;10.18;;;1.00;50.40;;;;;;5004790;28;20499;-77
2022/01/24 11:53:41;;;;;;;19.98;10.18;;;0.80;51.20;;;;;;5002710;28;20635;-77
2022/01/24 11:56:23;;;;;;;24.45;11.52;;;0.90;52.50;;;;;;5016185;28;20045;-76
2022/01/24 11:58:52;;;;;;;22.23;12.18;;;0.90;52.90;;;;;;4997853;28;20076;-76
2022/01/24 12:01:37;;;;;;;32.90;15.40;;;0.70;53.00;;;;;;4997700;28;20069;-78
2022/01/24 12:04:05;;;;;;;25.17;13.02;;;0.50;55.60;;;;;;5061302;28;20167;-78
2022/01/24 12:07:11;;;;;;;19.75;10.18;;;0.50;56.90;;;;;;4994265;28;20054;-77
2022/01/24 12:09:38;;;;;;;21.33;10.95;;;0.60;55.10;;;;;;5069554;28;20047;-76
2022/01/24 12:12:38;;;;;;;26.38;12.80;;;0.60;54.30;;;;;;5061152;28;20054;-78
2022/01/24 12:15:09;;;;;;;30.00;15.00;;;0.60;53.30;;;;;;5060218;28;20050;-77
2022/01/24 12:17:47;;;;;;;29.38;13.43;;;0.40;52.30;;;;;;4994421;28;20069;-76
2022/01/24 12:20:44;;;;;;;42.80;17.25;;;0.50;55.30;;;;;;5001834;28;20087;-76
2022/01/24 12:23:42;;;;;;;33.53;16.52;;;0.50;55.30;;;;;;4996530;28;20050;-76
2022/01/24 12:26:20;;;;;;;37.20;16.48;;;0.50;54.70;;;;;;5060489;28;20055;-76
2022/01/24 12:28:50;;;;;;;22.15;11.98;;;0.80;55.00;;;;;;4992828;28;20058;-77
2022/01/24 12:31:22;;;;;;;22.35;12.23;;;0.90;54.80;;;;;;4992040;28;20072;-78
2022/01/24 12:34:01;;;;;;;19.67;8.40;;;0.90;54.60;;;;;;5058791;28;20069;-78
2022/01/24 12:37:00;;;;;;;20.58;11.00;;;0.90;51.90;;;;;;4998296;28;20039;-75
2022/01/24 12:39:36;;;;;;;16.67;10.02;;;0.60;56.50;;;;;;5076024;28;20045;-77
2022/01/24 12:42:10;;;;;;;18.50;10.13;;;0.60;54.30;;;;;;4998482;28;20503;-77
2022/01/24 12:47:27;;;;;;;21.67;10.68;;;0.70;55.30;;;;;;4998967;28;20039;-76
2022/01/24 12:49:56;;;;;;;19.20;10.18;;;0.70;52.50;;;;;;5084399;28;20085;-75
2022/01/24 12:52:26;;;;;;;16.52;9.32;;;0.80;55.90;;;;;;5080368;28;20065;-75
2022/01/24 12:54:56;;;;;;;19.00;9.60;;;0.80;54.30;;;;;;5001569;28;20146;-76
2022/01/24 12:57:29;;;;;;;21.88;11.35;;;0.90;54.30;;;;;;5000284;28;20046;-77
2022/01/24 12:59:59;;;;;;;27.70;13.18;;;1.00;53.20;;;;;;4997649;28;20372;-76
2022/01/24 13:02:29;;;;;;;26.48;13.68;;;1.00;50.50;;;;;;5012278;28;20042;-77
2022/01/24 13:05:07;;;;;;;16.75;10.15;;;0.80;51.80;;;;;;5014891;28;20070;-77
2022/01/24 13:07:35;;;;;;;24.48;11.77;;;0.50;50.50;;;;;;4999974;28;20144;-77
2022/01/24 13:10:09;;;;;;;17.02;10.00;;;0.30;53.00;;;;;;5005406;28;20041;-76
2022/01/24 13:12:37;;;;;;;17.23;10.20;;;0.40;52.00;;;;;;5080986;28;20140;-76
2022/01/24 13:15:13;;;;;;;17.85;9.93;;;0.50;51.80;;;;;;5008610;28;20120;-76
2022/01/24 13:23:22;;;;;;;23.67;13.35;;;0.50;52.50;;;;;;5067776;28;20100;-77
2022/01/24 13:25:50;;;;;;;26.40;13.63;;;0.40;52.90;;;;;;5090237;28;20053;-77
2022/01/24 13:28:19;;;;;;;24.95;12.73;;;0.50;53.90;;;;;;5002455;28;20042;-77
2022/01/24 13:30:50;;;;;;;24.98;12.70;;;0.50;55.30;;;;;;5073763;28;20380;-76
2022/01/24 13:33:24;;;;;;;22.08;11.48;;;0.50;55.80;;;;;;5068620;28;20049;-75
2022/01/24 13:35:53;;;;;;;22.48;11.90;;;0.60;51.70;;;;;;5064227;28;20055;-75
2022/01/24 13:38:22;;;;;;;26.80;14.15;;;0.30;53.00;;;;;;5081578;28;20080;-76
2022/01/24 13:40:55;;;;;;;24.20;13.00;;;0.30;54.00;;;;;;5065221;28;20047;-77
2022/01/24 13:43:34;;;;;;;32.63;15.48;;;0.30;55.10;;;;;;5008637;28;20132;-76
2022/01/24 13:46:03;;;;;;;20.35;11.10;;;0.30;52.60;;;;;;4997814;28;20064;-76
2022/01/24 13:48:44;;;;;;;15.43;9.48;;;0.40;53.20;;;;;;5096059;28;20053;-76
2022/01/24 13:51:13;;;;;;;18.23;10.18;;;0.40;53.20;;;;;;5093000;28;20057;-78
2022/01/24 13:53:42;;;;;;;25.27;13.75;;;0.30;53.40;;;;;;5086906;28;20422;-79
2022/01/24 13:56:34;;;;;;;37.03;16.63;;;0.20;52.80;;;;;;5077625;28;20057;-78
2022/01/24 13:59:11;;;;;;;41.25;18.55;;;0.20;56.90;;;;;;5076609;28;20070;-77
2022/01/24 14:01:51;;;;;;;56.08;22.73;;;0.30;55.60;;;;;;4997094;28;20573;-77
2022/01/24 14:04:29;;;;;;;27.42;14.73;;;0.30;55.70;;;;;;5073710;22;20068;-79
2022/01/24 14:06:59;;;;;;;32.83;14.57;;;0.20;54.80;;;;;;5085873;28;20044;-79
2022/01/24 14:09:45;;;;;;;24.63;13.65;;;0.20;54.20;;;;;;5065129;28;20068;-80
2022/01/24 14:12:16;;;;;;;35.50;18.20;;;0.10;57.90;;;;;;5066302;28;20060;-80